Dix Hills, New York
Current Conditions -  °F | °C
As of 3:53 AM on Saturday 25 Oct 2014 (Local Time) from KFRG Reporting Station
Clear Clear  
Wind Chill: 48°   Ceiling: Unl
Heat Index: 48°   Visibility: 10mi
Dew Point: 43°   Wind: 3mph
Humidity: 83%   Direction: 310°NW
Pressure: 29.84"   Gusts: NA
Location:  40.81°N, 73.32°W
Report Text: KFRG 250753Z AUTO 31003KT 10SM CLR 09/06 A2984 RMK AO2 SLP106 T00890061
Loading
Personal Weather Stations






























Interactive Weather Map
Tropical Storm Tracking
New forecast layout! Learn more

10-Day Weather Forecast

Advertisements
Track Severe Weather on mobile